createdAt,value
2022-12-29T00:00:01.521Z,67.19
2022-12-29T00:01:01.525Z,69.53
2022-12-29T00:02:01.497Z,59.91
2022-12-29T00:03:01.577Z,59.45
2022-12-29T00:04:01.491Z,59.65
2022-12-29T00:05:01.470Z,60.07
2022-12-29T00:06:01.468Z,61.79
2022-12-29T00:07:01.439Z,59.91
2022-12-29T00:08:01.464Z,64.73
2022-12-29T00:09:01.454Z,60.26
2022-12-29T00:10:01.571Z,59.97
2022-12-29T00:11:01.449Z,65.20
2022-12-29T00:12:01.441Z,70.07
2022-12-29T00:13:01.435Z,60.71
2022-12-29T00:14:01.398Z,59.71
2022-12-29T00:15:01.439Z,59.93
2022-12-29T00:16:01.541Z,74.29
2022-12-29T00:17:01.409Z,60.73
2022-12-29T00:18:01.370Z,62.19
2022-12-29T00:19:01.410Z,63.99
2022-12-29T00:20:01.443Z,65.66
2022-12-29T00:21:01.428Z,65.19
2022-12-29T00:22:01.362Z,59.62
2022-12-29T00:23:01.366Z,68.16
2022-12-29T00:24:01.352Z,60.49
2022-12-29T00:25:01.340Z,59.51
2022-12-29T00:26:01.357Z,59.63
2022-12-29T00:27:01.353Z,60.29
2022-12-29T00:28:06.577Z,63.68
2022-12-29T00:29:03.326Z,60.81
2022-12-29T00:30:01.312Z,69.62
2022-12-29T00:31:01.336Z,69.85
2022-12-29T00:32:01.328Z,59.71
2022-12-29T00:33:01.272Z,66.10
2022-12-29T00:34:01.268Z,71.62
2022-12-29T00:35:01.295Z,73.58
2022-12-29T00:36:01.280Z,64.85
2022-12-29T00:37:01.231Z,67.10
2022-12-29T00:38:01.269Z,69.82
2022-12-29T00:39:01.273Z,65.06
2022-12-29T00:40:01.260Z,60.01
2022-12-29T00:41:01.247Z,59.93
2022-12-29T00:42:01.211Z,68.50
2022-12-29T00:43:01.345Z,65.64
2022-12-29T00:44:01.264Z,71.02
2022-12-29T00:45:01.216Z,65.42
2022-12-29T00:46:01.214Z,59.60
2022-12-29T00:47:01.259Z,60.82
2022-12-29T00:48:01.202Z,67.69
2022-12-29T00:49:01.276Z,65.77
2022-12-29T00:50:01.166Z,61.21
2022-12-29T00:51:01.181Z,62.87
2022-12-29T00:52:01.185Z,68.64
2022-12-29T00:53:01.164Z,60.37
2022-12-29T00:54:01.292Z,68.77
2022-12-29T00:55:01.126Z,70.83
2022-12-29T00:56:01.145Z,59.99
2022-12-29T00:57:01.134Z,67.07
2022-12-29T00:58:01.187Z,66.68
2022-12-29T00:59:01.148Z,60.14
2022-12-29T01:00:01.198Z,67.54
2022-12-29T01:01:01.135Z,63.28
2022-12-29T01:02:01.263Z,66.06
2022-12-29T01:03:01.320Z,68.45
2022-12-29T01:04:04.146Z,75.10
2022-12-29T01:05:02.108Z,68.17
2022-12-29T01:06:01.081Z,65.84
2022-12-29T01:07:01.079Z,70.63
2022-12-29T01:08:01.076Z,75.38
2022-12-29T01:09:01.051Z,68.30
2022-12-29T01:10:01.064Z,69.69
2022-12-29T01:11:01.065Z,63.08
2022-12-29T01:12:01.049Z,79.21
2022-12-29T01:13:01.036Z,61.71
2022-12-29T01:14:01.030Z,65.67
2022-12-29T01:15:01.044Z,60.30
2022-12-29T01:16:01.051Z,65.33
2022-12-29T01:17:00.988Z,73.53
2022-12-29T01:18:01.009Z,66.67
2022-12-29T01:19:01.023Z,63.06
2022-12-29T01:20:01.007Z,67.21
2022-12-29T01:21:00.975Z,66.71
2022-12-29T01:22:01.091Z,60.73
2022-12-29T01:23:00.983Z,69.03
2022-12-29T01:24:01.011Z,74.33
2022-12-29T01:25:01.004Z,71.98
2022-12-29T01:26:00.962Z,74.73
2022-12-29T01:27:01.007Z,60.46
2022-12-29T01:28:00.946Z,66.06
2022-12-29T01:29:00.934Z,62.94
2022-12-29T01:30:00.944Z,71.68
2022-12-29T01:31:00.904Z,61.84
2022-12-29T01:32:00.980Z,70.27
2022-12-29T01:33:00.954Z,63.98
2022-12-29T01:34:00.904Z,68.09
2022-12-29T01:35:00.911Z,59.32
2022-12-29T01:36:00.886Z,60.87
2022-12-29T01:37:00.884Z,63.34
2022-12-29T01:38:00.987Z,60.58
2022-12-29T01:39:00.860Z,67.89
2022-12-29T01:40:00.894Z,59.92
2022-12-29T01:41:00.878Z,63.58
2022-12-29T01:42:00.858Z,68.90
2022-12-29T01:43:00.850Z,67.54
2022-12-29T01:44:01.930Z,60.28
2022-12-29T01:45:00.838Z,66.30
2022-12-29T01:46:00.856Z,69.89
2022-12-29T01:47:00.816Z,73.72
2022-12-29T01:48:00.843Z,66.24
2022-12-29T01:49:00.868Z,60.63
2022-12-29T01:50:00.829Z,65.29
2022-12-29T01:51:00.778Z,67.25
2022-12-29T01:52:00.808Z,60.34
2022-12-29T01:53:00.788Z,62.24
2022-12-29T01:54:00.790Z,61.75
2022-12-29T01:55:00.822Z,65.20
2022-12-29T01:56:00.740Z,60.46
2022-12-29T01:57:00.784Z,60.12
2022-12-29T01:58:00.802Z,60.45
2022-12-29T01:59:00.780Z,60.11
2022-12-29T02:00:00.803Z,59.56
2022-12-29T02:01:00.814Z,59.44
2022-12-29T02:02:00.773Z,59.44
2022-12-29T02:03:00.825Z,67.09
2022-12-29T02:04:00.762Z,60.15
2022-12-29T02:05:04.487Z,59.34
2022-12-29T02:06:01.712Z,59.85
2022-12-29T02:07:00.741Z,60.99
2022-12-29T02:08:01.720Z,66.91
2022-12-29T02:09:00.757Z,62.37
2022-12-29T02:10:00.687Z,64.39
2022-12-29T02:11:00.721Z,59.79
2022-12-29T02:12:00.677Z,67.62
2022-12-29T02:13:00.695Z,61.69
2022-12-29T02:14:03.556Z,59.58
2022-12-29T02:15:00.715Z,59.66
2022-12-29T02:16:00.745Z,59.68
2022-12-29T02:17:00.664Z,65.29
2022-12-29T02:18:00.669Z,60.16
2022-12-29T02:19:00.634Z,59.82
2022-12-29T02:20:00.637Z,59.98
2022-12-29T02:21:00.666Z,60.07
2022-12-29T02:22:00.648Z,60.09
2022-12-29T02:23:00.643Z,60.12
2022-12-29T02:24:00.631Z,60.41
2022-12-29T02:25:00.647Z,64.85
2022-12-29T02:26:00.584Z,60.43
2022-12-29T02:27:00.606Z,60.30
2022-12-29T02:28:00.607Z,64.33
2022-12-29T02:29:00.598Z,65.96
2022-12-29T02:30:00.612Z,60.50
2022-12-29T02:31:00.572Z,64.13
2022-12-29T02:32:01.579Z,66.64
2022-12-29T02:33:00.575Z,60.74
2022-12-29T02:34:00.581Z,60.65
2022-12-29T02:35:00.545Z,60.65
2022-12-29T02:36:00.561Z,60.63
2022-12-29T02:37:00.510Z,69.09
2022-12-29T02:38:00.488Z,71.70
2022-12-29T02:39:00.515Z,65.78
2022-12-29T02:40:00.536Z,64.94
2022-12-29T02:41:00.542Z,60.63
2022-12-29T02:42:00.507Z,68.85
2022-12-29T02:43:00.522Z,62.77
2022-12-29T02:44:00.494Z,65.09
2022-12-29T02:45:00.522Z,70.57
2022-12-29T02:46:00.543Z,61.62
2022-12-29T02:47:00.514Z,61.50
2022-12-29T02:48:00.459Z,61.19
2022-12-29T02:49:00.459Z,64.46
2022-12-29T02:50:01.476Z,61.27
2022-12-29T02:51:00.466Z,61.37
2022-12-29T02:52:00.454Z,68.57
2022-12-29T02:53:00.457Z,73.55
2022-12-29T02:54:00.440Z,61.47
2022-12-29T02:55:00.439Z,61.27
2022-12-29T02:56:00.410Z,61.46
2022-12-29T02:57:00.422Z,61.71
2022-12-29T02:58:00.427Z,60.79
2022-12-29T02:59:00.442Z,61.46
2022-12-29T03:00:00.393Z,61.06
2022-12-29T03:01:00.441Z,62.90
2022-12-29T03:02:00.523Z,60.82
2022-12-29T03:03:00.498Z,66.65
2022-12-29T03:04:00.385Z,66.89
2022-12-29T03:05:00.379Z,64.84
2022-12-29T03:06:00.412Z,72.83
2022-12-29T03:07:00.363Z,61.59
2022-12-29T03:08:00.360Z,70.10
2022-12-29T03:09:00.328Z,63.03
2022-12-29T03:10:00.333Z,73.91
2022-12-29T03:11:00.344Z,61.71
2022-12-29T03:12:00.339Z,61.95
2022-12-29T03:13:00.313Z,65.04
2022-12-29T03:14:00.313Z,67.01
2022-12-29T03:15:00.324Z,60.70
2022-12-29T03:16:00.267Z,60.95
2022-12-29T03:17:00.349Z,65.21
2022-12-29T03:18:00.277Z,61.61
2022-12-29T03:19:00.329Z,61.45
2022-12-29T03:20:00.292Z,70.56
2022-12-29T03:21:00.289Z,64.86
2022-12-29T03:22:00.252Z,61.12
2022-12-29T03:23:00.326Z,60.33
2022-12-29T03:24:00.291Z,60.67
2022-12-29T03:25:00.228Z,61.04
2022-12-29T03:26:00.240Z,65.51
2022-12-29T03:27:00.261Z,60.51
2022-12-29T03:28:00.246Z,63.36
2022-12-29T03:29:00.243Z,61.18
2022-12-29T03:30:00.255Z,64.51
2022-12-29T03:31:00.307Z,63.77
2022-12-29T03:32:00.225Z,61.01
2022-12-29T03:33:00.169Z,66.12
2022-12-29T03:34:00.242Z,61.60
2022-12-29T03:35:00.201Z,72.37
2022-12-29T03:36:00.141Z,70.65
2022-12-29T03:37:00.185Z,62.06
2022-12-29T03:38:00.170Z,69.95
2022-12-29T03:39:00.156Z,60.95
2022-12-29T03:40:00.177Z,62.30
2022-12-29T03:41:00.185Z,69.96
2022-12-29T03:42:00.188Z,69.07
2022-12-29T03:43:00.137Z,61.21
2022-12-29T03:44:00.170Z,60.57
2022-12-29T03:45:00.245Z,60.73
2022-12-29T03:46:00.204Z,66.44
2022-12-29T03:47:00.139Z,61.39
2022-12-29T03:48:00.114Z,68.17
2022-12-29T03:49:00.117Z,60.67
2022-12-29T03:50:00.149Z,67.54
2022-12-29T03:51:00.143Z,60.79
2022-12-29T03:52:00.068Z,68.85
2022-12-29T03:53:00.112Z,61.05
2022-12-29T03:54:00.065Z,61.15
2022-12-29T03:55:00.079Z,61.12
2022-12-29T03:56:00.049Z,61.61
2022-12-29T03:57:00.080Z,71.20
2022-12-29T03:58:00.033Z,74.45
2022-12-29T03:59:00.072Z,66.37
2022-12-29T04:00:00.036Z,65.09
2022-12-29T04:01:00.061Z,60.63
2022-12-29T04:02:00.233Z,67.38
2022-12-29T04:03:00.188Z,73.60
2022-12-29T04:03:59.993Z,66.69
2022-12-29T04:05:00.024Z,60.72
2022-12-29T04:05:59.975Z,61.65
2022-12-29T04:07:00.040Z,65.25
2022-12-29T04:07:59.977Z,65.26
2022-12-29T04:08:59.971Z,72.40
2022-12-29T04:09:59.985Z,62.45
2022-12-29T04:10:59.996Z,62.49
2022-12-29T04:11:59.987Z,67.78
2022-12-29T04:12:59.996Z,73.42
2022-12-29T04:13:59.995Z,77.56
2022-12-29T04:14:59.956Z,66.33
2022-12-29T04:16:00.011Z,65.52
2022-12-29T04:16:59.940Z,70.38
2022-12-29T04:17:59.976Z,64.65
2022-12-29T04:18:59.934Z,71.58
2022-12-29T04:19:59.947Z,69.41
2022-12-29T04:20:59.949Z,69.48
2022-12-29T04:21:59.928Z,70.03
2022-12-29T04:22:59.912Z,69.40
2022-12-29T04:23:59.958Z,69.54
2022-12-29T04:24:59.912Z,73.47
2022-12-29T04:25:59.844Z,66.94
2022-12-29T04:27:00.919Z,73.89
2022-12-29T04:27:59.877Z,74.64
2022-12-29T04:28:59.978Z,74.28
2022-12-29T04:29:59.874Z,66.88
2022-12-29T04:30:59.883Z,70.02
2022-12-29T04:31:59.872Z,68.28
2022-12-29T04:32:59.826Z,74.33
2022-12-29T04:33:59.883Z,66.89
2022-12-29T04:34:59.993Z,67.46
2022-12-29T04:35:59.822Z,67.92
2022-12-29T04:36:59.860Z,69.18
2022-12-29T04:37:59.804Z,75.37
2022-12-29T04:38:59.826Z,67.20
2022-12-29T04:39:59.932Z,75.25
2022-12-29T04:40:59.760Z,66.66
2022-12-29T04:41:59.788Z,71.39
2022-12-29T04:42:59.806Z,68.24
2022-12-29T04:43:59.768Z,72.55
2022-12-29T04:44:59.758Z,66.60
2022-12-29T04:45:59.879Z,73.69
2022-12-29T04:46:59.802Z,74.16
2022-12-29T04:47:59.786Z,75.90
2022-12-29T04:48:59.788Z,76.26
2022-12-29T04:49:59.760Z,62.38
2022-12-29T04:50:59.768Z,64.91
2022-12-29T04:51:59.726Z,63.05
2022-12-29T04:53:00.762Z,66.81
2022-12-29T04:53:59.747Z,70.00
2022-12-29T04:54:59.703Z,66.89
2022-12-29T04:55:59.732Z,61.74
2022-12-29T04:56:59.840Z,71.41
2022-12-29T04:57:59.754Z,71.83
2022-12-29T04:58:59.662Z,76.10
2022-12-29T04:59:59.686Z,67.69
2022-12-29T05:00:59.675Z,76.03
2022-12-29T05:01:59.783Z,62.25
2022-12-29T05:02:59.799Z,73.22
2022-12-29T05:03:59.739Z,63.34
2022-12-29T05:04:59.660Z,67.78
2022-12-29T05:05:59.671Z,77.38
2022-12-29T05:06:59.651Z,71.07
2022-12-29T05:07:59.746Z,68.77
2022-12-29T05:08:59.647Z,66.64
2022-12-29T05:09:59.629Z,70.54
2022-12-29T05:10:59.628Z,70.29
2022-12-29T05:11:59.613Z,66.72
2022-12-29T05:12:59.640Z,66.34
2022-12-29T05:13:59.618Z,80.10
2022-12-29T05:14:59.581Z,76.11
2022-12-29T05:15:59.694Z,65.61
2022-12-29T05:16:59.616Z,62.62
2022-12-29T05:17:59.622Z,75.46
2022-12-29T05:18:59.608Z,67.13
2022-12-29T05:19:59.591Z,61.19
2022-12-29T05:20:59.558Z,62.09
2022-12-29T05:21:59.551Z,71.95
2022-12-29T05:22:59.599Z,69.62
2022-12-29T05:23:59.587Z,73.22
2022-12-29T05:24:59.533Z,69.11
2022-12-29T05:25:59.538Z,70.04
2022-12-29T05:26:59.559Z,69.59
2022-12-29T05:27:59.503Z,71.95
2022-12-29T05:28:59.531Z,70.68
2022-12-29T05:29:59.518Z,73.92
2022-12-29T05:30:59.559Z,65.13
2022-12-29T05:31:59.499Z,61.78
2022-12-29T05:32:59.511Z,67.73
2022-12-29T05:33:59.493Z,75.55
2022-12-29T05:34:59.516Z,73.55
2022-12-29T05:35:59.494Z,72.78
2022-12-29T05:36:59.508Z,71.74
2022-12-29T05:37:59.493Z,72.62
2022-12-29T05:38:59.514Z,79.13
2022-12-29T05:39:59.441Z,73.38
2022-12-29T05:40:59.571Z,74.13
2022-12-29T05:41:59.441Z,72.31
2022-12-29T05:42:59.454Z,75.24
2022-12-29T05:43:59.453Z,68.78
2022-12-29T05:44:59.393Z,73.16
2022-12-29T05:45:59.553Z,73.21
2022-12-29T05:46:59.499Z,71.12
2022-12-29T05:47:59.383Z,61.80
2022-12-29T05:48:59.388Z,76.27
2022-12-29T05:49:59.414Z,74.10
2022-12-29T05:50:59.387Z,67.31
2022-12-29T05:51:59.451Z,79.38
2022-12-29T05:52:59.399Z,70.29
2022-12-29T05:53:59.356Z,63.01
2022-12-29T05:54:59.380Z,69.16
2022-12-29T05:55:59.368Z,77.52
2022-12-29T05:56:59.377Z,79.25
2022-12-29T05:57:59.311Z,72.82
2022-12-29T05:58:59.374Z,67.03
2022-12-29T05:59:59.351Z,66.93
2022-12-29T06:00:59.328Z,70.77
2022-12-29T06:01:59.534Z,67.85
2022-12-29T06:02:59.561Z,75.20
2022-12-29T06:03:59.407Z,69.28
2022-12-29T06:04:59.272Z,71.28
2022-12-29T06:05:59.282Z,76.61
2022-12-29T06:06:59.315Z,73.78
2022-12-29T06:07:59.302Z,76.09
2022-12-29T06:08:59.276Z,72.15
2022-12-29T06:09:59.281Z,71.10
2022-12-29T06:10:59.303Z,74.88
2022-12-29T06:11:59.266Z,73.14
2022-12-29T06:12:59.244Z,73.85
2022-12-29T06:13:59.274Z,71.86
2022-12-29T06:14:59.240Z,75.80
2022-12-29T06:15:59.312Z,79.39
2022-12-29T06:16:59.214Z,66.49
2022-12-29T06:17:59.262Z,71.78
2022-12-29T06:18:59.256Z,72.64
2022-12-29T06:19:59.204Z,70.38
2022-12-29T06:20:59.176Z,65.34
2022-12-29T06:21:59.194Z,69.64
2022-12-29T06:22:59.195Z,73.45
2022-12-29T06:23:59.204Z,69.83
2022-12-29T06:25:04.626Z,68.83
2022-12-29T06:25:59.175Z,69.61
2022-12-29T06:26:59.166Z,75.77
2022-12-29T06:27:59.161Z,65.43
2022-12-29T06:28:59.177Z,73.64
2022-12-29T06:29:59.175Z,69.93
2022-12-29T06:30:59.152Z,77.66
2022-12-29T06:31:59.325Z,71.95
2022-12-29T06:32:59.169Z,67.42
2022-12-29T06:34:03.516Z,75.38
2022-12-29T06:35:00.276Z,77.91
2022-12-29T06:35:59.136Z,67.16
2022-12-29T06:36:59.093Z,79.03
2022-12-29T06:37:59.071Z,71.99
2022-12-29T06:38:59.074Z,76.41
2022-12-29T06:39:59.111Z,69.91
2022-12-29T06:40:59.203Z,67.07
2022-12-29T06:41:59.084Z,77.40
2022-12-29T06:42:59.088Z,72.90
2022-12-29T06:43:59.065Z,73.22
2022-12-29T06:44:59.076Z,67.47
2022-12-29T06:45:59.110Z,72.19
2022-12-29T06:46:59.069Z,78.78
2022-12-29T06:47:59.076Z,77.29
2022-12-29T06:48:59.064Z,72.07
2022-12-29T06:49:59.107Z,72.55
2022-12-29T06:50:59.002Z,79.37
2022-12-29T06:51:59.042Z,73.82
2022-12-29T06:52:59.035Z,79.03
2022-12-29T06:53:59.024Z,66.09
2022-12-29T06:54:58.968Z,77.25
2022-12-29T06:55:58.971Z,68.94
2022-12-29T06:56:59.006Z,73.60
2022-12-29T06:57:59.014Z,70.40
2022-12-29T06:58:58.998Z,71.00
2022-12-29T06:59:58.976Z,79.87
2022-12-29T07:00:59.041Z,72.43
2022-12-29T07:01:59.139Z,67.04
2022-12-29T07:02:59.130Z,71.34
2022-12-29T07:03:58.933Z,77.95
2022-12-29T07:04:58.970Z,72.78
2022-12-29T07:05:58.917Z,73.37
2022-12-29T07:06:58.952Z,72.09
2022-12-29T07:07:58.950Z,76.31
2022-12-29T07:08:58.948Z,73.55
2022-12-29T07:09:58.877Z,72.80
2022-12-29T07:10:58.882Z,73.55
2022-12-29T07:11:58.861Z,76.60
2022-12-29T07:12:58.923Z,71.35
2022-12-29T07:14:02.199Z,75.31
2022-12-29T07:14:58.860Z,82.38
2022-12-29T07:15:58.893Z,68.20
2022-12-29T07:16:58.866Z,77.12
2022-12-29T07:17:58.878Z,73.75
2022-12-29T07:18:58.891Z,77.88
2022-12-29T07:19:58.842Z,78.48
2022-12-29T07:20:58.832Z,65.48
2022-12-29T07:21:58.860Z,79.15
2022-12-29T07:22:58.831Z,69.07
2022-12-29T07:23:58.886Z,75.15
2022-12-29T07:24:58.956Z,76.17
2022-12-29T07:25:58.846Z,68.04
2022-12-29T07:26:58.831Z,72.28
2022-12-29T07:27:58.841Z,76.80
2022-12-29T07:28:58.803Z,71.82
2022-12-29T07:29:58.799Z,67.94
2022-12-29T07:30:58.773Z,82.12
2022-12-29T07:31:58.817Z,68.15
2022-12-29T07:32:58.757Z,71.39
2022-12-29T07:33:58.791Z,76.90
2022-12-29T07:34:58.774Z,73.48
2022-12-29T07:35:58.849Z,73.51
2022-12-29T07:36:58.775Z,71.26
2022-12-29T07:37:58.728Z,78.75
2022-12-29T07:38:58.722Z,78.00
2022-12-29T07:39:58.771Z,78.39
2022-12-29T07:40:58.855Z,68.70
2022-12-29T07:42:04.600Z,79.72
2022-12-29T07:42:59.714Z,70.00
2022-12-29T07:43:58.704Z,67.56
2022-12-29T07:44:58.709Z,74.71
2022-12-29T07:45:58.741Z,78.24
2022-12-29T07:46:59.347Z,76.47
2022-12-29T07:47:58.666Z,75.54
2022-12-29T07:48:58.679Z,76.70
2022-12-29T07:49:58.686Z,74.00
2022-12-29T07:50:58.629Z,76.23
2022-12-29T07:51:58.771Z,74.95
2022-12-29T07:52:58.650Z,76.71
2022-12-29T07:53:58.648Z,80.69
2022-12-29T07:54:58.641Z,75.36
2022-12-29T07:55:58.647Z,72.28
2022-12-29T07:56:58.631Z,73.20
2022-12-29T07:57:58.663Z,71.63
2022-12-29T07:58:58.593Z,75.33
2022-12-29T07:59:59.638Z,66.53
2022-12-29T08:00:58.662Z,78.55
2022-12-29T08:01:58.638Z,72.79
2022-12-29T08:02:58.705Z,76.89
2022-12-29T08:03:58.600Z,72.56
2022-12-29T08:04:58.592Z,75.15
2022-12-29T08:05:58.586Z,77.62
2022-12-29T08:06:58.565Z,73.01
2022-12-29T08:07:58.570Z,71.11
2022-12-29T08:09:01.633Z,79.71
2022-12-29T08:09:59.534Z,75.12
2022-12-29T08:10:58.525Z,75.71
2022-12-29T08:11:58.534Z,71.46
2022-12-29T08:12:58.602Z,76.30
2022-12-29T08:13:58.551Z,76.77
2022-12-29T08:14:58.520Z,74.08
2022-12-29T08:15:58.578Z,73.31
2022-12-29T08:16:58.499Z,77.64
2022-12-29T08:17:58.538Z,67.97
2022-12-29T08:18:58.468Z,76.22
2022-12-29T08:19:58.536Z,71.29
2022-12-29T08:20:58.496Z,76.28
2022-12-29T08:21:58.486Z,72.05
2022-12-29T08:22:58.444Z,78.61
2022-12-29T08:23:58.475Z,73.75
2022-12-29T08:24:58.584Z,78.42
2022-12-29T08:25:58.441Z,77.36
2022-12-29T08:26:59.403Z,73.86
2022-12-29T08:27:58.450Z,78.62
2022-12-29T08:28:58.426Z,76.22
2022-12-29T08:29:58.463Z,76.35
2022-12-29T08:30:58.520Z,75.13
2022-12-29T08:31:58.406Z,86.96
2022-12-29T08:32:58.454Z,75.96
2022-12-29T08:33:58.425Z,74.41
2022-12-29T08:34:58.433Z,80.19
2022-12-29T08:35:58.448Z,76.10
2022-12-29T08:36:58.412Z,77.69
2022-12-29T08:37:58.406Z,80.29
2022-12-29T08:38:58.362Z,79.09
2022-12-29T08:39:58.398Z,76.20
2022-12-29T08:40:58.358Z,71.30
2022-12-29T08:41:58.386Z,79.93
2022-12-29T08:42:58.332Z,78.62
2022-12-29T08:43:58.370Z,72.05
2022-12-29T08:44:58.352Z,77.50
2022-12-29T08:45:58.390Z,77.99
2022-12-29T08:46:58.404Z,78.01
2022-12-29T08:47:58.346Z,76.69
2022-12-29T08:48:58.357Z,77.54
2022-12-29T08:49:58.319Z,75.52
2022-12-29T08:50:58.333Z,76.21
2022-12-29T08:51:58.317Z,75.65
2022-12-29T08:52:58.407Z,80.82
2022-12-29T08:53:58.297Z,76.29
2022-12-29T08:54:58.261Z,75.06
2022-12-29T08:56:03.946Z,79.24
2022-12-29T08:57:00.265Z,69.11
2022-12-29T08:57:58.357Z,78.55
2022-12-29T08:58:58.236Z,82.22
2022-12-29T08:59:58.271Z,73.70
2022-12-29T09:00:58.264Z,70.73
2022-12-29T09:01:58.355Z,74.61
2022-12-29T09:02:58.403Z,80.63
2022-12-29T09:04:16.254Z,75.91
2022-12-29T09:05:00.283Z,75.10
2022-12-29T09:05:58.203Z,76.62
2022-12-29T09:06:58.254Z,76.39
2022-12-29T09:07:58.231Z,76.80
2022-12-29T09:08:58.266Z,75.83
2022-12-29T09:09:58.186Z,78.95
2022-12-29T09:10:58.196Z,74.08
2022-12-29T09:11:58.199Z,72.44
2022-12-29T09:12:58.159Z,83.13
2022-12-29T09:13:58.231Z,73.61
2022-12-29T09:14:58.196Z,83.21
2022-12-29T09:15:58.253Z,78.45
2022-12-29T09:16:58.167Z,75.93
2022-12-29T09:17:58.145Z,71.57
2022-12-29T09:18:58.134Z,72.01
2022-12-29T09:19:58.177Z,77.19
2022-12-29T09:20:58.116Z,75.81
2022-12-29T09:21:58.138Z,80.73
2022-12-29T09:22:58.128Z,78.04
2022-12-29T09:23:58.111Z,78.51
2022-12-29T09:24:58.133Z,82.85
2022-12-29T09:25:58.179Z,79.19
2022-12-29T09:26:58.121Z,79.27
2022-12-29T09:27:58.102Z,80.87
2022-12-29T09:28:58.076Z,77.76
2022-12-29T09:29:58.095Z,81.73
2022-12-29T09:30:58.103Z,76.97
2022-12-29T09:31:58.107Z,77.67
2022-12-29T09:32:59.997Z,82.58
2022-12-29T09:33:58.096Z,81.81
2022-12-29T09:34:58.068Z,81.43
2022-12-29T09:35:58.041Z,72.03
2022-12-29T09:36:58.044Z,74.77
2022-12-29T09:37:58.039Z,76.88
2022-12-29T09:38:58.020Z,76.08
2022-12-29T09:39:58.024Z,76.08
2022-12-29T09:40:58.006Z,73.72
2022-12-29T09:41:58.040Z,79.28
2022-12-29T09:42:58.011Z,81.63
2022-12-29T09:43:57.960Z,80.50
2022-12-29T09:44:57.962Z,80.55
2022-12-29T09:45:57.960Z,83.20
2022-12-29T09:46:57.969Z,77.41
2022-12-29T09:47:58.091Z,79.64
2022-12-29T09:48:57.921Z,75.50
2022-12-29T09:49:57.952Z,77.57
2022-12-29T09:50:57.929Z,68.90
2022-12-29T09:51:57.966Z,66.15
2022-12-29T09:52:58.034Z,78.18
2022-12-29T09:53:57.912Z,78.13
2022-12-29T09:55:02.996Z,74.72
2022-12-29T09:55:57.920Z,72.28
2022-12-29T09:56:57.927Z,79.80
2022-12-29T09:57:57.909Z,69.40
2022-12-29T09:58:57.927Z,72.95
2022-12-29T09:59:57.865Z,76.77
2022-12-29T10:00:57.889Z,77.06
2022-12-29T10:01:58.188Z,82.46
2022-12-29T10:02:58.011Z,78.49
2022-12-29T10:03:57.907Z,72.57
2022-12-29T10:04:57.874Z,82.88
2022-12-29T10:05:57.816Z,79.52
2022-12-29T10:07:27.915Z,83.14
2022-12-29T10:07:59.817Z,72.97
2022-12-29T10:08:57.845Z,79.88
2022-12-29T10:09:57.849Z,72.74
2022-12-29T10:10:57.794Z,78.59
2022-12-29T10:11:57.798Z,71.97
2022-12-29T10:12:57.794Z,73.56
2022-12-29T10:13:57.781Z,85.44
2022-12-29T10:14:57.902Z,76.84
2022-12-29T10:15:57.929Z,78.81
2022-12-29T10:16:57.758Z,78.01
2022-12-29T10:17:57.784Z,75.08
2022-12-29T10:18:57.753Z,78.24
2022-12-29T10:19:57.758Z,85.92
2022-12-29T10:20:57.779Z,74.44
2022-12-29T10:21:57.744Z,80.85
2022-12-29T10:22:57.723Z,73.80
2022-12-29T10:23:57.738Z,73.52
2022-12-29T10:24:57.733Z,74.47
2022-12-29T10:25:57.774Z,71.07
2022-12-29T10:26:57.711Z,71.35
2022-12-29T10:27:57.723Z,77.54
2022-12-29T10:28:57.731Z,77.47
2022-12-29T10:29:57.741Z,73.49
2022-12-29T10:30:57.661Z,79.27
2022-12-29T10:31:57.763Z,72.84
2022-12-29T10:32:57.656Z,78.71
2022-12-29T10:33:57.683Z,80.18
2022-12-29T10:34:57.679Z,73.43
2022-12-29T10:35:57.640Z,78.60
2022-12-29T10:36:57.766Z,72.85
2022-12-29T10:37:57.669Z,73.38
2022-12-29T10:38:57.651Z,76.92
2022-12-29T10:39:57.638Z,73.65
2022-12-29T10:40:57.614Z,78.04
2022-12-29T10:41:57.620Z,75.06
2022-12-29T10:42:57.770Z,76.32
2022-12-29T10:43:57.628Z,75.89
2022-12-29T10:44:57.622Z,74.85
2022-12-29T10:45:57.729Z,70.25
2022-12-29T10:46:57.571Z,71.51
2022-12-29T10:47:57.701Z,77.20
2022-12-29T10:48:57.597Z,75.81
2022-12-29T10:49:57.576Z,84.43
2022-12-29T10:51:01.776Z,72.11
2022-12-29T10:51:58.561Z,69.79
2022-12-29T10:52:57.562Z,69.26
2022-12-29T10:53:57.559Z,79.98
2022-12-29T10:54:57.517Z,78.36
2022-12-29T10:55:57.553Z,81.43
2022-12-29T10:56:57.533Z,78.09
2022-12-29T10:57:57.527Z,78.10
2022-12-29T10:58:57.556Z,81.63
2022-12-29T10:59:57.511Z,70.61
2022-12-29T11:00:57.600Z,73.43
2022-12-29T11:01:57.678Z,78.21
2022-12-29T11:02:57.689Z,77.16
2022-12-29T11:03:57.510Z,73.74
2022-12-29T11:04:57.517Z,77.16
2022-12-29T11:05:57.464Z,78.72
2022-12-29T11:06:57.495Z,77.47
2022-12-29T11:07:57.468Z,78.26
2022-12-29T11:08:57.508Z,76.05
2022-12-29T11:09:57.555Z,83.90
2022-12-29T11:10:57.459Z,79.08
2022-12-29T11:11:57.441Z,78.56
2022-12-29T11:12:57.441Z,82.28
2022-12-29T11:13:57.435Z,77.15
2022-12-29T11:14:57.390Z,76.13
2022-12-29T11:15:57.516Z,79.20
2022-12-29T11:16:57.440Z,68.04
2022-12-29T11:17:57.388Z,73.34
2022-12-29T11:18:57.403Z,73.95
2022-12-29T11:19:57.388Z,76.00
2022-12-29T11:20:57.477Z,78.24
2022-12-29T11:21:57.373Z,76.30
2022-12-29T11:22:57.379Z,76.90
2022-12-29T11:23:57.426Z,78.44
2022-12-29T11:24:57.384Z,79.05
2022-12-29T11:25:57.359Z,78.43
2022-12-29T11:26:57.400Z,72.78
2022-12-29T11:27:57.372Z,72.57
2022-12-29T11:28:57.367Z,76.44
2022-12-29T11:29:57.376Z,78.75
2022-12-29T11:30:57.297Z,74.85
2022-12-29T11:31:57.432Z,77.80
2022-12-29T11:32:57.307Z,80.65
2022-12-29T11:33:57.268Z,76.87
2022-12-29T11:34:57.320Z,73.29
2022-12-29T11:35:57.282Z,75.15
2022-12-29T11:36:57.295Z,80.44
2022-12-29T11:37:57.428Z,79.87
2022-12-29T11:38:57.246Z,76.41
2022-12-29T11:39:58.274Z,81.60
2022-12-29T11:40:57.282Z,70.80
2022-12-29T11:41:57.277Z,80.10
2022-12-29T11:42:57.284Z,73.14
2022-12-29T11:43:57.266Z,79.19
2022-12-29T11:44:57.257Z,79.36
2022-12-29T11:45:57.336Z,77.62
2022-12-29T11:46:57.247Z,81.71
2022-12-29T11:47:57.224Z,73.38
2022-12-29T11:48:57.252Z,72.24
2022-12-29T11:49:58.215Z,79.54
2022-12-29T11:50:57.197Z,80.47
2022-12-29T11:51:57.219Z,79.37
2022-12-29T11:52:57.197Z,79.85
2022-12-29T11:53:57.217Z,74.30
2022-12-29T11:54:57.148Z,79.68
2022-12-29T11:55:58.169Z,79.04
2022-12-29T11:56:57.160Z,72.10
2022-12-29T11:57:57.135Z,73.09
2022-12-29T11:58:57.156Z,75.48
2022-12-29T11:59:57.395Z,66.70
2022-12-29T12:00:57.141Z,82.29
2022-12-29T12:01:57.256Z,70.24
2022-12-29T12:02:57.161Z,76.79
2022-12-29T12:03:57.170Z,78.01
2022-12-29T12:04:57.229Z,74.56
2022-12-29T12:05:57.101Z,79.95
2022-12-29T12:06:57.103Z,70.91
2022-12-29T12:07:57.133Z,71.30
2022-12-29T12:08:57.089Z,75.85
2022-12-29T12:10:01.567Z,79.00
2022-12-29T12:10:57.181Z,78.07
2022-12-29T12:11:57.090Z,73.72
2022-12-29T12:12:57.080Z,77.86
2022-12-29T12:13:57.073Z,76.59
2022-12-29T12:14:57.043Z,79.11
2022-12-29T12:15:57.553Z,68.30
2022-12-29T12:16:57.057Z,78.29
2022-12-29T12:17:57.060Z,78.65
2022-12-29T12:18:56.991Z,78.47
2022-12-29T12:19:56.991Z,75.74
2022-12-29T12:20:57.000Z,72.05
2022-12-29T12:21:57.139Z,81.63
2022-12-29T12:22:57.007Z,79.54
2022-12-29T12:23:57.011Z,79.73
2022-12-29T12:24:57.029Z,78.09
2022-12-29T12:25:56.958Z,78.03
2022-12-29T12:26:57.002Z,74.26
2022-12-29T12:27:56.961Z,83.98
2022-12-29T12:28:57.007Z,75.59
2022-12-29T12:29:56.943Z,81.15
2022-12-29T12:30:56.977Z,77.32
2022-12-29T12:31:56.958Z,73.95
2022-12-29T12:32:56.963Z,83.66
2022-12-29T12:33:56.922Z,75.74
2022-12-29T12:34:56.942Z,78.88
2022-12-29T12:35:56.952Z,73.41
2022-12-29T12:36:56.903Z,81.50
2022-12-29T12:37:57.009Z,74.41
2022-12-29T12:38:56.935Z,78.20
2022-12-29T12:39:56.884Z,66.18
2022-12-29T12:40:56.897Z,74.38
2022-12-29T12:41:56.894Z,75.89
2022-12-29T12:42:56.864Z,78.34
2022-12-29T12:43:56.968Z,78.59
2022-12-29T12:44:56.848Z,77.78
2022-12-29T12:45:56.941Z,75.44
2022-12-29T12:46:56.951Z,74.48
2022-12-29T12:47:56.882Z,77.59
2022-12-29T12:48:56.828Z,77.50
2022-12-29T12:49:56.859Z,78.42
2022-12-29T12:50:56.810Z,78.82
2022-12-29T12:52:02.964Z,78.92